Time;durP1;ratioP1;P1;durP2;ratioP2;P2;SDS_P1;SDS_P2;PMS_P1;PMS_P2;Temp;Humidity;BMP_temperature;BMP_pressure;BME280_temperature;BME280_humidity;BME280_pressure;Samples;Min_cycle;Max_cycle;Signal;HPM_P1;HPM_P2
2021/12/26 00:01:02;;;;;;;11.35;5.35;;;8.50;99.90;;;;;;5001081;28;20054;-50
2021/12/26 00:03:30;;;;;;;8.52;4.20;;;8.40;99.90;;;;;;4998306;28;20045;-50
2021/12/26 00:05:58;;;;;;;9.43;4.70;;;8.50;99.90;;;;;;4998152;28;20023;-50
2021/12/26 00:08:24;;;;;;;9.13;4.50;;;8.40;99.90;;;;;;5002032;28;20116;-50
2021/12/26 00:10:50;;;;;;;9.48;4.30;;;8.50;99.90;;;;;;5000477;28;20026;-50
2021/12/26 00:13:18;;;;;;;8.95;4.88;;;8.40;99.90;;;;;;5002058;28;20026;-50
2021/12/26 00:15:44;;;;;;;10.32;4.68;;;8.40;99.90;;;;;;4999934;28;20097;-50
2021/12/26 00:18:10;;;;;;;6.50;4.63;;;8.50;99.90;;;;;;5000484;28;20133;-50
2021/12/26 00:20:38;;;;;;;6.75;4.18;;;8.40;99.90;;;;;;5004764;28;20441;-50
2021/12/26 00:23:04;;;;;;;7.70;3.75;;;8.40;99.90;;;;;;5004087;28;20026;-50
2021/12/26 00:25:30;;;;;;;8.75;4.65;;;8.40;99.90;;;;;;5004784;28;20104;-50
2021/12/26 00:27:55;;;;;;;6.55;4.07;;;8.40;99.90;;;;;;5002473;28;20476;-50
2021/12/26 00:30:21;;;;;;;7.40;4.32;;;8.40;99.90;;;;;;5004498;28;20121;-50
2021/12/26 00:32:49;;;;;;;10.18;4.15;;;8.40;99.90;;;;;;5002916;28;20034;-50
2021/12/26 00:35:19;;;;;;;11.73;5.45;;;8.40;99.90;;;;;;5006514;28;20061;-50
2021/12/26 00:37:46;;;;;;;7.20;3.63;;;8.40;99.90;;;;;;5005639;28;20034;-50
2021/12/26 00:40:13;;;;;;;6.65;4.00;;;8.40;99.90;;;;;;5003082;28;20026;-50
2021/12/26 00:42:40;;;;;;;10.70;4.78;;;8.40;99.90;;;;;;5003016;28;20030;-50
2021/12/26 00:45:07;;;;;;;10.15;5.10;;;8.40;99.90;;;;;;5005570;28;20029;-50
2021/12/26 00:47:33;;;;;;;6.97;4.18;;;8.40;99.90;;;;;;5001379;28;20360;-50
2021/12/26 00:50:01;;;;;;;7.35;4.70;;;8.40;99.90;;;;;;5004578;28;20251;-50
2021/12/26 00:52:26;;;;;;;8.02;4.57;;;8.40;99.90;;;;;;5004548;28;20030;-51
2021/12/26 00:54:53;;;;;;;6.80;3.92;;;8.40;99.90;;;;;;5004141;28;20033;-50
2021/12/26 00:57:19;;;;;;;10.88;4.82;;;8.40;99.90;;;;;;5000975;28;20038;-50
2021/12/26 00:59:45;;;;;;;8.77;4.70;;;8.40;99.90;;;;;;5003399;28;20038;-50
2021/12/26 01:02:11;;;;;;;8.73;4.65;;;8.40;99.90;;;;;;5003030;28;20068;-50
2021/12/26 01:04:39;;;;;;;7.40;4.28;;;8.40;99.90;;;;;;5005152;28;20022;-50
2021/12/26 01:07:17;;;;;;;8.25;4.35;;;8.40;99.90;;;;;;5005247;28;20026;-50
2021/12/26 01:09:47;;;;;;;8.05;4.97;;;8.40;99.90;;;;;;5005114;28;20079;-50
2021/12/26 01:12:15;;;;;;;6.40;3.65;;;8.40;99.90;;;;;;5003509;28;20061;-50
2021/12/26 01:14:48;;;;;;;11.25;4.45;;;8.40;99.90;;;;;;5002446;28;20050;-50
2021/12/26 01:17:18;;;;;;;8.68;4.32;;;8.40;99.90;;;;;;5003180;28;20042;-50
2021/12/26 01:19:48;;;;;;;8.55;4.15;;;8.40;99.90;;;;;;5002232;28;20027;-50
2021/12/26 01:22:15;;;;;;;9.10;4.38;;;8.40;99.90;;;;;;5002603;28;20034;-50
2021/12/26 01:24:42;;;;;;;7.25;4.05;;;8.40;99.90;;;;;;5005012;28;20033;-50
2021/12/26 01:27:08;;;;;;;8.10;4.63;;;8.40;99.90;;;;;;5003349;28;20030;-50
2021/12/26 01:29:35;;;;;;;8.85;4.65;;;8.40;99.90;;;;;;5004978;28;20398;-50
2021/12/26 01:32:02;;;;;;;9.93;4.57;;;8.40;99.90;;;;;;5000973;28;20034;-50
2021/12/26 01:34:28;;;;;;;8.48;4.15;;;8.40;99.90;;;;;;5002758;28;20117;-50
2021/12/26 01:36:53;;;;;;;14.98;4.10;;;8.40;99.90;;;;;;5004832;28;20560;-50
2021/12/26 01:39:19;;;;;;;4.82;3.53;;;8.40;99.90;;;;;;5001373;28;20034;-51
2021/12/26 01:41:45;;;;;;;10.25;4.43;;;8.40;99.90;;;;;;5001962;28;20018;-50
2021/12/26 01:44:14;;;;;;;11.82;5.28;;;8.30;99.90;;;;;;5001562;28;20069;-50
2021/12/26 01:46:40;;;;;;;10.13;4.78;;;8.40;99.90;;;;;;5003488;28;20026;-50
2021/12/26 01:49:09;;;;;;;10.02;5.00;;;8.40;99.90;;;;;;5005117;28;20022;-50
2021/12/26 01:51:36;;;;;;;14.18;5.18;;;8.40;99.90;;;;;;5000023;28;20291;-51
2021/12/26 01:54:06;;;;;;;9.93;5.05;;;8.40;99.90;;;;;;5003843;28;20116;-51
2021/12/26 01:56:32;;;;;;;11.80;5.10;;;8.40;99.90;;;;;;5001455;28;20446;-50
2021/12/26 01:58:59;;;;;;;8.43;4.60;;;8.30;99.90;;;;;;5002632;28;20138;-50
2021/12/26 02:01:25;;;;;;;10.25;5.10;;;8.40;99.90;;;;;;4999496;28;20430;-50
2021/12/26 02:03:51;;;;;;;10.10;4.93;;;8.40;99.90;;;;;;5002389;28;20453;-50
2021/12/26 02:06:17;;;;;;;11.77;5.45;;;8.30;99.90;;;;;;5002332;28;20089;-50
2021/12/26 02:08:43;;;;;;;8.88;5.03;;;8.30;99.90;;;;;;5004081;28;20441;-50
2021/12/26 02:11:09;;;;;;;13.15;5.43;;;8.30;99.90;;;;;;5004454;28;20029;-50
2021/12/26 02:13:38;;;;;;;9.50;5.32;;;8.40;99.90;;;;;;5003146;28;20288;-50
2021/12/26 02:16:08;;;;;;;9.77;5.28;;;8.30;99.90;;;;;;5001694;28;20117;-50
2021/12/26 02:18:34;;;;;;;11.82;5.88;;;8.30;99.90;;;;;;5001537;28;20365;-50
2021/12/26 02:23:37;;;;;;;9.43;5.40;;;8.30;99.90;;;;;;4999519;28;20036;-50
2021/12/26 02:28:43;;;;;;;13.27;5.75;;;8.30;99.90;;;;;;5001128;28;20043;-50
2021/12/26 02:31:09;;;;;;;;;;;8.30;99.90;;;;;;5003132;28;20030;-49
2021/12/26 02:33:36;;;;;;;10.75;5.47;;;8.30;99.90;;;;;;5000242;28;20304;-50
2021/12/26 02:36:02;;;;;;;15.73;6.78;;;8.30;99.90;;;;;;5001089;28;20034;-49
2021/12/26 02:38:28;;;;;;;16.83;6.63;;;8.30;99.90;;;;;;5002133;28;20095;-50
2021/12/26 02:40:56;;;;;;;13.32;6.85;;;8.30;99.90;;;;;;5003452;28;20033;-50
2021/12/26 02:43:24;;;;;;;10.98;5.70;;;8.30;99.90;;;;;;4998302;28;20518;-50
2021/12/26 02:45:50;;;;;;;16.38;7.45;;;8.30;99.90;;;;;;5004780;28;20025;-50
2021/12/26 02:48:16;;;;;;;16.30;6.88;;;8.30;99.90;;;;;;5001141;28;20560;-50
2021/12/26 02:50:44;;;;;;;17.48;6.95;;;8.30;99.90;;;;;;5001769;28;20468;-50
2021/12/26 02:53:15;;;;;;;15.00;6.60;;;8.30;99.90;;;;;;5003765;28;20045;-50
2021/12/26 02:55:41;;;;;;;14.40;6.80;;;8.30;99.90;;;;;;5000746;28;20026;-49
2021/12/26 02:58:09;;;;;;;12.80;6.50;;;8.30;99.90;;;;;;5000940;28;20492;-50
2021/12/26 03:00:40;;;;;;;11.18;6.15;;;8.30;99.90;;;;;;4998910;28;20418;-51
2021/12/26 03:03:07;;;;;;;12.73;6.15;;;8.30;99.90;;;;;;5001982;28;20116;-50
2021/12/26 03:05:37;;;;;;;13.00;5.88;;;8.30;99.90;;;;;;5005249;28;20076;-50
2021/12/26 03:08:03;;;;;;;13.77;6.93;;;8.30;99.90;;;;;;5002691;28;20445;-50
2021/12/26 03:10:29;;;;;;;13.35;6.40;;;8.30;99.90;;;;;;5003115;28;20037;-50
2021/12/26 03:13:00;;;;;;;13.98;6.47;;;8.30;99.90;;;;;;5001071;28;20031;-50
2021/12/26 03:15:28;;;;;;;15.20;6.70;;;8.30;99.90;;;;;;5001944;28;20037;-50
2021/12/26 03:17:55;;;;;;;11.15;6.45;;;8.30;99.90;;;;;;5001468;28;20045;-50
2021/12/26 03:20:25;;;;;;;12.23;6.20;;;8.30;99.90;;;;;;5000697;28;20165;-50
2021/12/26 03:22:50;;;;;;;21.20;7.82;;;8.30;99.90;;;;;;5002125;28;20024;-50
2021/12/26 03:25:21;;;;;;;14.07;6.47;;;8.30;99.90;;;;;;5002049;28;20022;-50
2021/12/26 03:27:48;;;;;;;14.35;6.65;;;8.30;99.90;;;;;;5000136;28;20053;-50
2021/12/26 03:30:18;;;;;;;13.77;6.70;;;8.30;99.90;;;;;;5001464;28;20037;-51
2021/12/26 03:32:44;;;;;;;13.60;6.82;;;8.30;99.90;;;;;;5001825;28;20345;-50
2021/12/26 03:35:10;;;;;;;18.67;7.32;;;8.30;99.90;;;;;;4999036;28;20026;-50
2021/12/26 03:37:38;;;;;;;13.70;6.32;;;8.30;99.90;;;;;;5002449;28;20038;-50
2021/12/26 03:40:04;;;;;;;12.55;6.05;;;8.30;99.90;;;;;;4994915;28;20022;-50
2021/12/26 03:42:31;;;;;;;13.75;6.82;;;8.30;99.90;;;;;;5005362;28;20029;-50
2021/12/26 03:44:58;;;;;;;15.73;8.02;;;8.30;99.90;;;;;;5003502;28;20250;-50
2021/12/26 03:47:24;;;;;;;16.10;6.80;;;8.30;99.90;;;;;;5001042;28;20065;-50
2021/12/26 03:49:51;;;;;;;15.10;7.72;;;8.30;99.90;;;;;;5000290;28;20019;-50
2021/12/26 03:52:17;;;;;;;14.80;7.68;;;8.20;99.90;;;;;;5000881;28;20447;-50
2021/12/26 03:54:42;;;;;;;17.25;7.82;;;8.20;99.90;;;;;;5001696;28;20065;-50
2021/12/26 03:57:08;;;;;;;15.73;6.97;;;8.20;99.90;;;;;;5000636;28;20058;-50
2021/12/26 03:59:34;;;;;;;13.68;6.93;;;8.20;99.90;;;;;;5000035;28;20030;-50
2021/12/26 04:01:59;;;;;;;16.63;7.20;;;8.30;99.90;;;;;;4999108;28;20030;-50
2021/12/26 04:04:26;;;;;;;10.65;5.82;;;8.30;99.90;;;;;;5001161;28;20023;-50
2021/12/26 04:06:51;;;;;;;19.83;7.05;;;8.30;99.90;;;;;;4998097;28;20433;-50
2021/12/26 04:09:17;;;;;;;18.38;8.05;;;8.20;99.90;;;;;;5001348;28;20038;-49
2021/12/26 04:11:45;;;;;;;17.92;7.45;;;8.30;99.90;;;;;;4998624;28;20249;-50
2021/12/26 04:14:12;;;;;;;18.15;7.32;;;8.20;99.90;;;;;;5001716;28;20056;-50
2021/12/26 04:16:38;;;;;;;13.75;6.97;;;8.20;99.90;;;;;;5006382;28;20550;-50
2021/12/26 04:19:04;;;;;;;13.43;6.07;;;8.20;99.90;;;;;;5000087;28;20034;-50
2021/12/26 04:21:30;;;;;;;13.95;6.57;;;8.20;99.90;;;;;;5000149;28;20774;-50
2021/12/26 04:23:56;;;;;;;16.33;7.13;;;8.20;99.90;;;;;;5002295;28;20064;-50
2021/12/26 04:26:22;;;;;;;17.48;7.47;;;8.20;99.90;;;;;;4998048;28;20050;-50
2021/12/26 04:28:47;;;;;;;13.90;6.82;;;8.20;99.90;;;;;;5000800;28;20475;-50
2021/12/26 04:31:13;;;;;;;15.82;7.05;;;8.30;99.90;;;;;;4998984;28;20084;-50
2021/12/26 04:33:39;;;;;;;17.83;6.72;;;8.20;99.90;;;;;;5001647;28;20075;-50
2021/12/26 04:36:05;;;;;;;17.20;7.45;;;8.20;99.90;;;;;;5000980;28;20029;-50
2021/12/26 04:38:31;;;;;;;14.43;7.50;;;8.20;99.90;;;;;;5002488;28;20057;-50
2021/12/26 04:40:57;;;;;;;13.52;6.90;;;8.20;99.90;;;;;;5001399;28;20030;-50
2021/12/26 04:43:24;;;;;;;14.75;7.13;;;8.20;99.90;;;;;;5000807;28;20411;-50
2021/12/26 04:45:50;;;;;;;15.88;6.50;;;8.20;99.90;;;;;;4999066;28;20023;-50
2021/12/26 04:48:15;;;;;;;16.58;6.65;;;8.20;99.90;;;;;;5004514;28;20029;-50
2021/12/26 04:50:42;;;;;;;13.50;6.68;;;8.20;99.90;;;;;;4999497;28;20096;-50
2021/12/26 04:53:08;;;;;;;14.80;6.85;;;8.20;99.90;;;;;;5000806;28;20033;-50
2021/12/26 04:55:34;;;;;;;19.08;7.55;;;8.20;99.90;;;;;;5000539;28;20327;-50
2021/12/26 04:58:00;;;;;;;14.35;6.68;;;8.20;99.90;;;;;;5003801;28;20042;-50
2021/12/26 05:00:28;;;;;;;14.77;7.28;;;8.20;99.90;;;;;;5001212;28;20026;-51
2021/12/26 05:02:56;;;;;;;13.85;7.03;;;8.20;99.90;;;;;;5000537;28;20037;-50
2021/12/26 05:05:22;;;;;;;13.98;6.38;;;8.20;99.90;;;;;;4998914;28;20361;-50
2021/12/26 05:07:48;;;;;;;13.32;6.70;;;8.20;99.90;;;;;;5003745;28;20092;-50
2021/12/26 05:10:16;;;;;;;17.42;8.70;;;8.20;99.90;;;;;;5001151;28;20425;-50
2021/12/26 05:12:42;;;;;;;17.27;7.65;;;8.20;99.90;;;;;;5001890;28;20404;-50
2021/12/26 05:15:10;;;;;;;15.10;6.78;;;8.20;99.90;;;;;;5005202;28;20026;-50
2021/12/26 05:17:36;;;;;;;11.20;6.00;;;8.20;99.90;;;;;;5002753;28;20034;-50
2021/12/26 05:20:02;;;;;;;13.70;7.25;;;8.20;99.90;;;;;;5007874;28;20041;-50
2021/12/26 05:22:28;;;;;;;14.65;7.22;;;8.20;99.90;;;;;;5003083;28;20265;-50
2021/12/26 05:24:53;;;;;;;14.00;6.70;;;8.20;99.90;;;;;;5002745;28;20076;-50
2021/12/26 05:27:19;;;;;;;14.63;6.32;;;8.20;99.90;;;;;;5004156;28;20372;-50
2021/12/26 05:29:44;;;;;;;15.68;7.28;;;8.20;99.90;;;;;;5004535;28;20102;-50
2021/12/26 05:32:10;;;;;;;12.88;6.18;;;8.20;99.90;;;;;;5001686;28;20591;-50
2021/12/26 05:34:36;;;;;;;13.93;6.53;;;8.20;99.90;;;;;;5003454;28;20408;-50
2021/12/26 05:37:01;;;;;;;14.05;7.20;;;8.20;99.90;;;;;;5004715;28;20029;-50
2021/12/26 05:39:27;;;;;;;16.42;6.68;;;8.20;99.90;;;;;;5002643;28;20031;-50
2021/12/26 05:41:53;;;;;;;19.30;7.63;;;8.20;99.90;;;;;;5006493;28;20033;-50
2021/12/26 05:44:18;;;;;;;16.88;7.85;;;8.20;99.90;;;;;;5001817;28;20027;-50
2021/12/26 05:46:45;;;;;;;17.20;6.82;;;8.20;99.90;;;;;;5004309;28;20069;-50
2021/12/26 05:49:11;;;;;;;15.10;6.43;;;8.20;99.90;;;;;;5003523;28;20034;-50
2021/12/26 05:51:37;;;;;;;16.10;6.28;;;8.20;99.90;;;;;;5003023;28;20033;-50
2021/12/26 05:54:04;;;;;;;13.77;6.50;;;8.20;99.90;;;;;;5003697;28;20022;-50
2021/12/26 05:56:29;;;;;;;12.90;6.00;;;8.20;99.90;;;;;;5003618;28;20022;-50
2021/12/26 05:58:55;;;;;;;20.50;7.13;;;8.20;99.90;;;;;;5001658;28;20052;-50
2021/12/26 06:01:21;;;;;;;15.93;6.57;;;8.20;99.90;;;;;;5002656;28;20038;-50
2021/12/26 06:03:46;;;;;;;15.68;7.13;;;8.20;99.90;;;;;;5001068;28;20490;-50
2021/12/26 06:06:12;;;;;;;16.25;6.60;;;8.20;99.90;;;;;;5004430;28;20036;-50
2021/12/26 06:08:38;;;;;;;14.35;7.15;;;8.10;99.90;;;;;;5002471;28;20026;-50
2021/12/26 06:11:04;;;;;;;15.88;6.13;;;8.20;99.90;;;;;;5001441;28;20062;-50
2021/12/26 06:13:31;;;;;;;13.63;6.40;;;8.20;99.90;;;;;;5000339;28;20338;-50
2021/12/26 06:15:58;;;;;;;14.68;6.43;;;8.20;99.90;;;;;;5001423;28;20041;-50
2021/12/26 06:18:23;;;;;;;14.00;6.13;;;8.20;99.90;;;;;;5004562;28;20461;-50
2021/12/26 06:20:49;;;;;;;13.73;6.65;;;8.20;99.90;;;;;;5001631;28;20038;-50
2021/12/26 06:23:14;;;;;;;15.48;7.05;;;8.20;99.90;;;;;;5004140;28;20037;-51
2021/12/26 06:25:40;;;;;;;15.60;7.35;;;8.20;99.90;;;;;;5004484;28;20033;-50
2021/12/26 06:28:06;;;;;;;15.60;6.13;;;8.20;99.90;;;;;;5001702;28;20031;-50
2021/12/26 06:30:32;;;;;;;11.20;5.93;;;8.20;99.90;;;;;;5001438;28;20049;-50
2021/12/26 06:32:58;;;;;;;13.13;6.22;;;8.10;99.90;;;;;;5003176;28;20068;-50
2021/12/26 06:35:24;;;;;;;13.48;6.88;;;8.20;99.90;;;;;;5000043;28;20034;-50
2021/12/26 06:37:49;;;;;;;18.23;6.45;;;8.20;99.90;;;;;;5002854;28;20479;-50
2021/12/26 06:40:15;;;;;;;10.35;5.95;;;8.10;99.90;;;;;;5000791;28;20037;-49
2021/12/26 06:42:43;;;;;;;14.48;6.78;;;8.20;99.90;;;;;;5001921;28;20030;-50
2021/12/26 06:45:14;;;;;;;17.60;6.75;;;8.10;99.90;;;;;;4999189;28;20425;-50
2021/12/26 06:47:40;;;;;;;15.80;6.88;;;8.10;99.90;;;;;;5001438;28;20058;-50
2021/12/26 06:50:06;;;;;;;18.42;7.25;;;8.20;99.90;;;;;;5003498;28;20068;-50
2021/12/26 06:52:31;;;;;;;14.43;6.97;;;8.10;99.90;;;;;;5000002;28;20049;-50
2021/12/26 06:54:57;;;;;;;14.25;7.25;;;8.10;99.90;;;;;;5002313;28;20056;-51
2021/12/26 06:57:22;;;;;;;17.65;7.03;;;8.10;99.90;;;;;;5003833;28;20444;-50
2021/12/26 06:59:48;;;;;;;14.35;6.40;;;8.10;99.90;;;;;;5008804;28;20034;-50
2021/12/26 07:02:14;;;;;;;16.23;6.72;;;8.20;99.90;;;;;;5003603;28;20090;-50
2021/12/26 07:04:39;;;;;;;17.85;7.13;;;8.10;99.90;;;;;;5000735;28;20468;-50
2021/12/26 07:07:05;;;;;;;15.23;7.57;;;8.20;99.90;;;;;;5006825;28;20075;-50
2021/12/26 07:09:31;;;;;;;20.17;6.63;;;8.10;99.90;;;;;;4999126;28;20374;-50
2021/12/26 07:11:56;;;;;;;13.23;6.28;;;8.10;99.90;;;;;;5001928;28;20030;-50
2021/12/26 07:14:22;;;;;;;15.85;6.38;;;8.10;99.90;;;;;;5003851;28;20022;-50
2021/12/26 07:16:48;;;;;;;16.48;6.93;;;8.10;99.90;;;;;;5001792;28;20069;-50
2021/12/26 07:19:14;;;;;;;13.20;5.80;;;8.10;99.90;;;;;;5003010;28;20361;-50
2021/12/26 07:21:41;;;;;;;15.65;6.95;;;8.20;99.90;;;;;;5000475;28;20029;-50
2021/12/26 07:24:07;;;;;;;13.43;5.85;;;8.20;99.90;;;;;;4998954;28;20048;-50
2021/12/26 07:26:33;;;;;;;16.73;6.47;;;8.20;99.90;;;;;;5002806;28;20112;-50
2021/12/26 07:28:59;;;;;;;14.90;6.72;;;8.20;99.90;;;;;;5006261;28;20172;-50
2021/12/26 07:31:25;;;;;;;14.25;7.22;;;8.10;99.90;;;;;;5002624;28;20113;-50
2021/12/26 07:33:52;;;;;;;16.42;6.93;;;8.20;99.90;;;;;;5003506;28;20037;-50
2021/12/26 07:36:17;;;;;;;16.88;7.10;;;8.10;99.90;;;;;;5004051;28;20480;-50
2021/12/26 07:38:43;;;;;;;18.23;7.00;;;8.20;99.90;;;;;;4999821;28;20453;-50
2021/12/26 07:41:08;;;;;;;14.10;7.43;;;8.20;99.90;;;;;;5007031;28;20034;-50
2021/12/26 07:43:34;;;;;;;13.95;6.40;;;8.20;99.90;;;;;;5009874;28;20080;-50
2021/12/26 07:46:00;;;;;;;13.23;6.72;;;8.20;99.90;;;;;;5006825;28;20405;-50
2021/12/26 07:48:26;;;;;;;20.60;6.35;;;8.20;99.90;;;;;;5008748;28;20030;-50
2021/12/26 07:50:51;;;;;;;16.55;6.97;;;8.10;99.30;;;;;;5010298;28;20472;-50
2021/12/26 07:53:17;;;;;;;17.98;6.65;;;8.10;99.20;;;;;;5008078;28;20057;-50
2021/12/26 07:55:42;;;;;;;9.52;5.38;;;8.10;99.50;;;;;;5010338;28;20022;-50
2021/12/26 07:58:08;;;;;;;16.45;6.57;;;8.10;99.40;;;;;;5009868;28;20058;-50
2021/12/26 08:00:35;;;;;;;13.45;6.63;;;8.10;99.40;;;;;;5010317;28;20354;-50
2021/12/26 08:03:01;;;;;;;14.35;6.28;;;8.10;99.30;;;;;;5006621;28;20041;-50
2021/12/26 08:05:27;;;;;;;12.68;5.97;;;8.10;99.20;;;;;;5010157;28;20028;-50
2021/12/26 08:07:54;;;;;;;12.23;5.68;;;8.10;99.20;;;;;;4995234;28;20046;-50
2021/12/26 08:10:19;;;;;;;10.32;5.80;;;8.10;99.20;;;;;;5008831;28;20104;-49
2021/12/26 08:12:45;;;;;;;12.23;6.05;;;8.10;99.20;;;;;;5008883;28;20022;-50
2021/12/26 08:15:11;;;;;;;9.85;4.93;;;8.10;99.20;;;;;;5007030;28;20569;-50
2021/12/26 08:17:38;;;;;;;10.35;5.20;;;8.10;99.20;;;;;;5008109;28;20116;-50
2021/12/26 08:20:05;;;;;;;13.10;5.25;;;8.10;99.20;;;;;;5009241;28;20053;-50
2021/12/26 08:22:31;;;;;;;13.95;4.85;;;8.10;99.20;;;;;;5008318;28;20032;-50
2021/12/26 08:24:57;;;;;;;12.45;5.45;;;8.10;99.20;;;;;;5009636;28;20018;-50
2021/12/26 08:27:22;;;;;;;10.30;5.35;;;8.10;99.20;;;;;;5009586;28;20034;-50
2021/12/26 08:29:48;;;;;;;15.50;5.80;;;8.10;99.20;;;;;;5007937;28;20037;-50
2021/12/26 08:32:17;;;;;;;11.98;5.97;;;8.10;99.30;;;;;;5004106;28;20508;-50
2021/12/26 08:34:44;;;;;;;11.45;4.85;;;8.10;99.30;;;;;;5009661;28;20045;-50
2021/12/26 08:37:10;;;;;;;11.88;5.15;;;8.10;99.30;;;;;;5008838;28;20038;-49
2021/12/26 08:39:38;;;;;;;12.20;5.95;;;8.10;99.30;;;;;;5009351;28;20041;-50
2021/12/26 08:42:05;;;;;;;10.27;4.65;;;8.10;99.30;;;;;;5009945;28;20364;-50
2021/12/26 08:44:32;;;;;;;10.70;4.93;;;8.10;99.30;;;;;;5009869;28;20022;-49
2021/12/26 08:46:58;;;;;;;11.55;4.18;;;8.20;99.40;;;;;;5012546;28;20036;-50
2021/12/26 08:49:24;;;;;;;11.63;5.38;;;8.10;99.30;;;;;;5013086;28;20026;-50
2021/12/26 08:51:50;;;;;;;14.40;5.80;;;8.10;99.40;;;;;;5012212;28;20026;-50
2021/12/26 08:54:15;;;;;;;10.50;5.47;;;8.10;99.40;;;;;;5011132;28;20030;-50
2021/12/26 08:56:42;;;;;;;13.57;5.25;;;8.10;99.40;;;;;;5013093;28;20096;-50
2021/12/26 08:59:09;;;;;;;10.45;5.70;;;8.10;99.40;;;;;;5011869;28;20465;-50
2021/12/26 09:01:35;;;;;;;11.70;5.43;;;8.10;99.40;;;;;;5011297;28;20049;-50
2021/12/26 09:04:01;;;;;;;11.25;4.50;;;8.10;99.40;;;;;;5011357;28;20037;-50
2021/12/26 09:06:27;;;;;;;12.32;4.97;;;8.20;99.50;;;;;;5012523;28;20025;-50
2021/12/26 09:08:53;;;;;;;8.35;4.72;;;8.10;99.40;;;;;;5012535;28;20080;-50
2021/12/26 09:11:19;;;;;;;11.13;5.05;;;8.10;99.50;;;;;;5012132;28;20041;-50
2021/12/26 09:13:47;;;;;;;11.75;4.72;;;8.10;99.50;;;;;;5012282;28;20026;-50
2021/12/26 09:16:13;;;;;;;10.88;4.65;;;8.20;99.50;;;;;;5012934;28;20045;-50
2021/12/26 09:18:39;;;;;;;12.85;5.55;;;8.20;99.50;;;;;;5011285;28;20034;-50
2021/12/26 09:21:05;;;;;;;11.20;4.38;;;8.20;99.50;;;;;;5011987;28;20034;-50
2021/12/26 09:23:31;;;;;;;8.90;4.55;;;8.20;99.50;;;;;;5011667;28;20038;-50
2021/12/26 09:25:57;;;;;;;8.73;3.97;;;8.20;99.50;;;;;;5012659;28;20029;-50
2021/12/26 09:28:23;;;;;;;10.90;4.45;;;8.20;99.50;;;;;;5012272;28;20029;-50
2021/12/26 09:30:48;;;;;;;9.57;4.40;;;8.20;99.60;;;;;;5012707;28;20121;-50
2021/12/26 09:33:19;;;;;;;12.90;5.05;;;8.20;99.60;;;;;;5008841;28;20088;-50
2021/12/26 09:35:49;;;;;;;12.35;5.28;;;8.20;99.60;;;;;;5011709;28;20034;-50
2021/12/26 09:38:15;;;;;;;11.00;4.65;;;8.20;99.60;;;;;;5012477;28;20050;-49
2021/12/26 09:40:41;;;;;;;11.02;4.75;;;8.20;99.60;;;;;;5012229;28;20215;-50
2021/12/26 09:43:06;;;;;;;13.93;4.80;;;8.20;99.60;;;;;;5011121;28;20021;-50
2021/12/26 09:45:32;;;;;;;11.77;4.72;;;8.20;99.60;;;;;;5011216;28;20050;-49
2021/12/26 09:47:58;;;;;;;8.73;4.60;;;8.20;99.60;;;;;;5011569;28;20029;-50
2021/12/26 09:50:24;;;;;;;10.57;4.70;;;8.20;99.60;;;;;;5010730;28;20376;-51
2021/12/26 09:52:53;;;;;;;12.27;5.57;;;8.20;99.60;;;;;;5002137;28;20034;-49
2021/12/26 09:55:18;;;;;;;8.23;4.63;;;8.20;99.60;;;;;;5003769;28;20061;-50
2021/12/26 09:57:44;;;;;;;12.05;4.90;;;8.20;99.70;;;;;;5004252;28;20070;-50
2021/12/26 10:00:24;;;;;;;12.20;5.50;;;8.20;99.70;;;;;;5005015;28;20014;-50
2021/12/26 10:03:14;;;;;;;10.63;3.72;;;8.20;99.60;;;;;;5003312;28;20030;-50
2021/12/26 10:06:17;;;;;;;10.40;4.10;;;8.20;99.70;;;;;;5000142;28;20364;-50
2021/12/26 10:08:59;;;;;;;15.63;5.05;;;8.20;99.70;;;;;;5010668;28;20018;-50
2021/12/26 10:11:41;;;;;;;9.98;3.70;;;8.20;99.90;;;;;;5002531;28;20453;-50
2021/12/26 10:14:09;;;;;;;12.93;5.75;;;8.20;99.70;;;;;;5005000;28;20113;-50
2021/12/26 10:16:42;;;;;;;10.25;4.20;;;8.20;99.70;;;;;;5006247;28;20462;-50
2021/12/26 10:19:09;;;;;;;10.73;4.85;;;8.20;99.70;;;;;;5004349;28;20258;-50
2021/12/26 10:21:49;;;;;;;13.93;4.75;;;8.20;99.70;;;;;;5003902;28;20025;-50
2021/12/26 10:24:30;;;;;;;11.25;3.75;;;8.30;99.70;;;;;;5004250;28;20026;-50
2021/12/26 10:27:01;;;;;;;9.00;4.30;;;8.20;99.70;;;;;;5001503;28;20034;-50
2021/12/26 10:29:33;;;;;;;8.18;4.00;;;8.20;99.70;;;;;;5003938;28;20053;-50
2021/12/26 10:32:09;;;;;;;12.35;4.57;;;8.30;99.80;;;;;;5005714;28;20022;-50
2021/12/26 10:34:41;;;;;;;11.02;5.07;;;8.20;99.70;;;;;;5008320;28;20037;-50
2021/12/26 10:37:20;;;;;;;15.38;4.68;;;8.30;99.80;;;;;;5006207;28;20081;-50
2021/12/26 10:39:54;;;;;;;12.60;4.57;;;8.20;99.80;;;;;;5005963;28;20049;-50
2021/12/26 10:42:29;;;;;;;10.80;4.30;;;8.20;99.80;;;;;;5008627;28;20010;-50
2021/12/26 10:45:00;;;;;;;15.05;5.50;;;8.30;99.80;;;;;;5007339;28;20431;-50
2021/12/26 10:47:31;;;;;;;18.17;5.78;;;8.30;99.80;;;;;;5008549;28;20033;-50
2021/12/26 10:49:56;;;;;;;;;;;8.30;99.80;;;;;;5005753;28;20375;-50
2021/12/26 10:52:29;;;;;;;9.98;4.28;;;8.30;99.80;;;;;;5008800;28;20328;-50
2021/12/26 10:55:05;;;;;;;17.02;5.72;;;8.30;99.80;;;;;;5004104;28;20026;-50
2021/12/26 10:57:45;;;;;;;8.50;3.90;;;8.30;99.90;;;;;;5006251;28;20580;-50
2021/12/26 11:00:18;;;;;;;10.20;3.50;;;8.30;99.80;;;;;;5006405;28;20036;-50
2021/12/26 11:03:01;;;;;;;14.75;4.43;;;8.30;99.90;;;;;;4999878;28;20038;-50
2021/12/26 11:05:34;;;;;;;8.38;4.38;;;8.30;99.70;;;;;;5008406;28;20061;-50
2021/12/26 11:08:03;;;;;;;8.18;3.58;;;8.30;99.80;;;;;;5011221;28;20053;-50
2021/12/26 11:10:34;;;;;;;9.35;4.20;;;8.30;99.70;;;;;;5005157;28;20100;-50
2021/12/26 11:13:04;;;;;;;8.85;3.17;;;8.30;99.70;;;;;;5002029;28;20056;-50
2021/12/26 11:15:38;;;;;;;7.70;3.25;;;8.30;99.60;;;;;;5004788;28;20036;-50
2021/12/26 11:18:08;;;;;;;14.63;4.20;;;8.30;99.60;;;;;;5006965;28;20041;-50
2021/12/26 11:20:38;;;;;;;14.43;5.60;;;8.30;99.60;;;;;;5009394;28;20433;-50
2021/12/26 11:23:13;;;;;;;10.27;4.10;;;8.30;99.70;;;;;;5005533;28;20033;-50
2021/12/26 11:25:58;;;;;;;16.90;6.60;;;8.40;99.70;;;;;;5002638;28;20412;-50
2021/12/26 11:28:28;;;;;;;11.23;4.88;;;8.40;99.70;;;;;;5007314;28;20030;-50
2021/12/26 11:31:00;;;;;;;11.30;3.63;;;8.30;99.90;;;;;;5008893;28;20054;-50
2021/12/26 11:33:27;;;;;;;7.00;4.03;;;8.30;99.60;;;;;;5004454;28;20037;-50
2021/12/26 11:35:54;;;;;;;12.18;5.43;;;8.30;99.70;;;;;;5007349;28;20184;-50
2021/12/26 11:38:23;;;;;;;9.52;3.72;;;8.30;99.80;;;;;;5010434;28;20087;-50
2021/12/26 11:40:50;;;;;;;11.93;4.07;;;8.40;99.80;;;;;;5006124;28;20037;-50
2021/12/26 11:43:46;;;;;;;10.85;4.53;;;8.40;99.70;;;;;;5004013;28;20401;-50
2021/12/26 11:46:46;;;;;;;10.98;3.50;;;8.40;99.80;;;;;;5005948;28;20068;-50
2021/12/26 11:49:34;;;;;;;6.93;3.45;;;8.30;99.80;;;;;;5005801;28;20065;-50
2021/12/26 11:52:44;;;;;;;13.55;5.63;;;8.30;99.80;;;;;;5008708;28;20045;-50
2021/12/26 11:55:28;;;;;;;10.38;3.58;;;8.40;99.80;;;;;;5014171;28;20485;-50
2021/12/26 11:58:10;;;;;;;14.80;4.90;;;8.40;99.80;;;;;;5006239;28;20042;-50
2021/12/26 12:00:39;;;;;;;10.02;3.95;;;8.40;99.80;;;;;;5009236;28;20087;-50
2021/12/26 12:03:15;;;;;;;9.27;4.15;;;8.40;99.80;;;;;;5004368;28;20049;-50
2021/12/26 12:05:43;;;;;;;12.88;4.85;;;8.40;99.80;;;;;;5004158;28;20121;-50
2021/12/26 12:08:22;;;;;;;10.88;5.20;;;8.40;99.80;;;;;;5005461;28;20462;-50
2021/12/26 12:10:56;;;;;;;12.60;5.20;;;8.40;99.80;;;;;;5002072;28;20096;-50
2021/12/26 12:13:22;;;;;;;13.43;5.35;;;8.40;99.90;;;;;;5005252;28;20057;-49
2021/12/26 12:15:55;;;;;;;10.10;4.57;;;8.40;99.90;;;;;;5009381;28;20053;-50
2021/12/26 12:18:23;;;;;;;14.23;5.90;;;8.40;99.90;;;;;;5006459;28;20369;-50
2021/12/26 12:21:15;;;;;;;15.52;6.20;;;8.40;99.90;;;;;;5009834;28;20110;-50
2021/12/26 12:24:02;;;;;;;15.27;6.47;;;8.40;99.90;;;;;;5008028;28;20106;-51
2021/12/26 12:27:00;;;;;;;14.82;6.70;;;8.40;99.90;;;;;;5005846;28;20022;-50
2021/12/26 12:29:29;;;;;;;15.02;6.15;;;8.40;99.90;;;;;;5010105;28;20033;-50
2021/12/26 12:32:06;;;;;;;17.35;7.30;;;8.40;99.90;;;;;;5004914;28;20030;-50
2021/12/26 12:34:44;;;;;;;29.52;8.43;;;8.40;99.90;;;;;;5007917;28;20405;-50
2021/12/26 12:37:10;;;;;;;11.73;5.40;;;8.40;99.90;;;;;;5009922;28;20513;-50
2021/12/26 12:39:35;;;;;;;17.65;5.95;;;8.40;99.90;;;;;;5005189;28;20368;-50
2021/12/26 12:42:01;;;;;;;9.40;4.63;;;8.40;99.90;;;;;;5008983;28;20371;-50
2021/12/26 12:44:32;;;;;;;15.07;6.13;;;8.40;99.90;;;;;;5007397;28;20026;-50
2021/12/26 12:47:08;;;;;;;20.77;7.45;;;8.50;99.90;;;;;;5005557;28;20033;-50
2021/12/26 12:49:48;;;;;;;15.30;5.80;;;8.50;99.90;;;;;;5007344;28;20026;-50
2021/12/26 12:52:32;;;;;;;;;;;8.50;99.90;;;;;;5004056;28;20113;-49
2021/12/26 12:54:58;;;;;;;16.10;4.90;;;8.50;99.90;;;;;;5009552;28;20008;-50
2021/12/26 12:57:37;;;;;;;16.30;4.93;;;8.40;99.90;;;;;;5009687;28;20544;-50
2021/12/26 13:00:24;;;;;;;10.98;4.28;;;8.50;99.90;;;;;;5008402;28;20411;-50
2021/12/26 13:02:55;;;;;;;10.57;4.43;;;8.40;99.90;;;;;;5005757;28;20461;-50